Main page
METAR-TAF:

METAR-TAF

Airports :

Ibiza Airport

Ibiza, Spain

latitude: 38-52N, longitude: 001-23E, elevation: 7 m

Current weather observation

The report was made 17 minutes ago, at 21:30 UTC
Wind 9 kt from the Southwest
Temperature 15°C
Humidity 59%
Pressure 1015 hPa
Visibility 10 km or more
no clouds below 1500 m and no cumulonimbus

METAR: LEIB 242130Z 22009KT CAVOK 15/07 Q1015 NOSIG

Time: 23:47 (21:47 UTC)

Forecast

The report was made 1 hour and 47 minutes ago, at 20:00 UTC
Forecast valid from 24 at 21 UTC to 25 at 21 UTC
Wind 9 kt from the Southwest
Visibility 10 km or more
Few clouds at a height of 3000 ft
Becoming
from 25 at 14 UTC to 25 at 15 UTC
Wind 7 kt from the Southeast

TAF: LEIB 242000Z 2421/2521 22009KT 9999 FEW030 TX18/2512Z TN12/2506Z BECMG 2514/2515 14007KT

Weather observations and forecasts of more than 4000 airports (METAR and TAF reports).

The available stations are represented by yellow and red dots on the map.

Hover mouse over dot to see the name of the station.

Then click to see weather observations and forecasts.

To change the map : click on the green buttons with a black cross to zoom in, on the green button with a dash to zoom out, or on the green arrows for adjacent maps.


METAR-TAF: